Time;durP1;ratioP1;P1;durP2;ratioP2;P2;SDS_P1;SDS_P2;PMS_P1;PMS_P2;Temp;Humidity;BMP_temperature;BMP_pressure;BME280_temperature;BME280_humidity;BME280_pressure;Samples;Min_cycle;Max_cycle;Signal;HPM_P1;HPM_P2
2022/08/27 00:01:38;;;;;;;7.40;2.03;;;;;;;;;;5042665;28;20483;-63
2022/08/27 00:04:04;;;;;;;4.93;1.83;;;;;;;;;;5051980;28;20045;-63
2022/08/27 00:06:30;;;;;;;7.03;2.22;;;;;;;;;;5049539;28;20066;-63
2022/08/27 00:08:57;;;;;;;5.00;2.00;;;;;;;;;;5045622;28;20077;-63
2022/08/27 00:11:26;;;;;;;4.93;2.25;;;;;;;;;;5039854;28;20044;-63
2022/08/27 00:13:52;;;;;;;4.97;1.92;;;;;;;;;;5043600;28;20045;-63
2022/08/27 00:16:18;;;;;;;5.57;2.08;;;;;;;;;;5042259;28;20076;-63
2022/08/27 00:18:45;;;;;;;7.35;2.10;;;;;;;;;;5047123;28;20044;-63
2022/08/27 00:21:12;;;;;;;5.20;2.05;;;;;;;;;;5047625;28;20454;-63
2022/08/27 00:23:38;;;;;;;5.38;2.17;;;;;;;;;;5038050;28;20087;-63
2022/08/27 00:26:05;;;;;;;9.00;2.20;;;;;;;;;;5049375;28;20083;-63
2022/08/27 00:28:32;;;;;;;6.80;2.17;;;;;;;;;;5041435;28;20037;-63
2022/08/27 00:30:58;;;;;;;6.78;2.00;;;;;;;;;;5041433;28;20048;-63
2022/08/27 00:33:25;;;;;;;5.70;2.00;;;;;;;;;;5061593;28;20072;-63
2022/08/27 00:35:51;;;;;;;8.07;2.28;;;;;;;;;;5054131;28;20036;-63
2022/08/27 00:38:17;;;;;;;5.38;2.20;;;;;;;;;;5051496;28;20052;-63
2022/08/27 00:40:44;;;;;;;6.30;2.35;;;;;;;;;;5042435;28;20063;-63
2022/08/27 00:43:10;;;;;;;5.80;2.17;;;;;;;;;;5039860;28;20306;-63
2022/08/27 00:45:38;;;;;;;5.45;2.40;;;;;;;;;;5046282;28;20052;-63
2022/08/27 00:48:06;;;;;;;3.95;2.22;;;;;;;;;;5043960;28;20042;-63
2022/08/27 00:50:37;;;;;;;6.82;2.75;;;;;;;;;;5038249;28;20314;-63
2022/08/27 00:53:05;;;;;;;7.55;2.30;;;;;;;;;;5035253;28;20049;-63
2022/08/27 00:55:37;;;;;;;6.47;2.10;;;;;;;;;;5042496;28;20055;-63
2022/08/27 00:58:09;;;;;;;4.68;2.40;;;;;;;;;;5044633;28;20553;-63
2022/08/27 01:00:35;;;;;;;7.03;2.30;;;;;;;;;;5041156;28;20460;-63
2022/08/27 01:03:01;;;;;;;4.05;2.22;;;;;;;;;;5050552;28;20462;-63
2022/08/27 01:05:27;;;;;;;5.63;2.30;;;;;;;;;;5045107;28;20050;-63
2022/08/27 01:07:56;;;;;;;6.45;2.55;;;;;;;;;;5041940;28;20033;-63
2022/08/27 01:10:24;;;;;;;8.73;2.22;;;;;;;;;;5042143;28;20041;-63
2022/08/27 01:12:52;;;;;;;7.20;2.15;;;;;;;;;;5048368;28;20036;-63
2022/08/27 01:15:19;;;;;;;5.93;2.00;;;;;;;;;;5045385;28;20394;-63
2022/08/27 01:17:46;;;;;;;5.97;2.50;;;;;;;;;;5040041;28;20056;-63
2022/08/27 01:20:22;;;;;;;6.25;2.58;;;;;;;;;;5049050;28;20124;-63
2022/08/27 01:23:05;;;;;;;7.65;2.47;;;;;;;;;;5045654;28;20048;-65
2022/08/27 01:25:31;;;;;;;7.00;2.40;;;;;;;;;;5048800;28;20038;-63
2022/08/27 01:27:59;;;;;;;6.43;2.55;;;;;;;;;;5038534;28;20405;-63
2022/08/27 01:30:25;;;;;;;5.00;2.42;;;;;;;;;;5049424;28;20052;-63
2022/08/27 01:32:52;;;;;;;4.80;2.33;;;;;;;;;;5042184;28;20044;-63
2022/08/27 01:35:19;;;;;;;5.53;2.13;;;;;;;;;;5044182;28;20029;-63
2022/08/27 01:37:46;;;;;;;4.07;2.25;;;;;;;;;;5037097;28;20045;-63
2022/08/27 01:40:12;;;;;;;5.65;2.45;;;;;;;;;;5036958;28;20438;-63
2022/08/27 01:42:43;;;;;;;7.65;2.78;;;;;;;;;;5035251;28;20041;-63
2022/08/27 01:45:11;;;;;;;4.60;2.28;;;;;;;;;;5039984;28;20506;-63
2022/08/27 01:47:37;;;;;;;7.60;3.10;;;;;;;;;;5041864;28;20041;-63
2022/08/27 01:50:06;;;;;;;7.60;2.70;;;;;;;;;;5044831;28;20045;-63
2022/08/27 01:52:32;;;;;;;8.52;2.33;;;;;;;;;;5043193;28;20033;-63
2022/08/27 01:54:58;;;;;;;7.13;2.13;;;;;;;;;;5046035;28;20064;-63
2022/08/27 01:57:25;;;;;;;7.05;2.80;;;;;;;;;;5048849;28;20029;-63
2022/08/27 01:59:51;;;;;;;5.80;2.65;;;;;;;;;;5051395;28;20056;-63
2022/08/27 02:02:17;;;;;;;5.80;2.60;;;;;;;;;;5050000;28;20070;-63
2022/08/27 02:04:43;;;;;;;6.15;2.60;;;;;;;;;;5044841;28;20044;-63
2022/08/27 02:07:10;;;;;;;4.85;2.13;;;;;;;;;;5049845;28;20464;-62
2022/08/27 02:09:36;;;;;;;4.72;2.00;;;;;;;;;;5043634;28;20042;-63
2022/08/27 02:12:03;;;;;;;4.97;2.47;;;;;;;;;;5047773;28;20048;-63
2022/08/27 02:14:29;;;;;;;5.32;2.47;;;;;;;;;;5049140;28;20479;-63
2022/08/27 02:16:55;;;;;;;7.50;2.50;;;;;;;;;;5048817;28;20080;-63
2022/08/27 02:19:21;;;;;;;7.95;2.47;;;;;;;;;;5039502;28;20037;-63
2022/08/27 02:21:48;;;;;;;4.78;2.25;;;;;;;;;;5037888;28;20451;-63
2022/08/27 02:24:14;;;;;;;7.07;1.98;;;;;;;;;;5039849;28;20045;-63
2022/08/27 02:26:40;;;;;;;7.28;2.47;;;;;;;;;;5049694;28;20047;-63
2022/08/27 02:29:07;;;;;;;4.93;2.05;;;;;;;;;;5050749;28;20056;-63
2022/08/27 02:31:33;;;;;;;7.30;2.22;;;;;;;;;;5044865;28;20029;-63
2022/08/27 02:33:59;;;;;;;5.35;2.00;;;;;;;;;;5048711;28;20052;-63
2022/08/27 02:36:26;;;;;;;6.35;2.20;;;;;;;;;;5045286;28;20045;-63
2022/08/27 02:38:52;;;;;;;6.28;2.30;;;;;;;;;;5038640;28;20487;-63
2022/08/27 02:41:18;;;;;;;5.70;2.03;;;;;;;;;;5042329;28;20402;-63
2022/08/27 02:43:44;;;;;;;4.60;1.90;;;;;;;;;;5043008;28;20036;-63
2022/08/27 02:46:10;;;;;;;5.15;2.47;;;;;;;;;;5042537;28;20040;-63
2022/08/27 02:48:38;;;;;;;6.38;2.08;;;;;;;;;;5044347;28;20037;-63
2022/08/27 02:51:05;;;;;;;4.85;1.92;;;;;;;;;;5039493;28;20037;-63
2022/08/27 02:53:31;;;;;;;4.88;1.83;;;;;;;;;;5048992;28;20513;-63
2022/08/27 02:55:57;;;;;;;5.78;2.30;;;;;;;;;;5043470;28;20564;-63
2022/08/27 02:58:23;;;;;;;9.90;2.08;;;;;;;;;;5042163;28;20068;-63
2022/08/27 03:00:50;;;;;;;6.25;2.10;;;;;;;;;;5050117;28;20049;-63
2022/08/27 03:03:16;;;;;;;6.75;2.25;;;;;;;;;;5044560;28;20037;-63
2022/08/27 03:05:42;;;;;;;3.92;1.67;;;;;;;;;;5046088;28;20044;-63
2022/08/27 03:08:08;;;;;;;3.88;1.73;;;;;;;;;;5040829;28;20041;-63
2022/08/27 03:10:34;;;;;;;4.97;1.58;;;;;;;;;;5041347;28;20041;-63
2022/08/27 03:13:00;;;;;;;7.13;1.80;;;;;;;;;;5036026;28;20083;-63
2022/08/27 03:15:26;;;;;;;6.07;2.00;;;;;;;;;;5040369;28;20052;-63
2022/08/27 03:20:39;;;;;;;5.57;2.03;;;;;;;;;;5049384;28;20129;-63
2022/08/27 03:23:06;;;;;;;4.22;2.10;;;;;;;;;;5042610;28;20052;-63
2022/08/27 03:25:32;;;;;;;6.93;1.95;;;;;;;;;;5048811;28;20051;-63
2022/08/27 03:27:58;;;;;;;5.68;2.38;;;;;;;;;;5050646;28;20044;-63
2022/08/27 03:30:24;;;;;;;5.43;2.28;;;;;;;;;;5049453;28;20041;-63
2022/08/27 03:32:50;;;;;;;4.85;1.95;;;;;;;;;;5046097;28;20099;-63
2022/08/27 03:35:16;;;;;;;5.10;1.80;;;;;;;;;;5044864;28;20479;-63
2022/08/27 03:37:42;;;;;;;7.30;2.10;;;;;;;;;;5042901;28;20559;-63
2022/08/27 03:40:08;;;;;;;5.68;2.10;;;;;;;;;;5049884;28;20043;-63
2022/08/27 03:42:34;;;;;;;5.65;2.20;;;;;;;;;;5040213;28;20037;-63
2022/08/27 03:45:00;;;;;;;5.55;2.08;;;;;;;;;;5040158;28;20041;-63
2022/08/27 03:47:26;;;;;;;4.05;2.00;;;;;;;;;;5044843;28;20070;-63
2022/08/27 03:49:52;;;;;;;3.65;2.08;;;;;;;;;;5036653;28;20076;-63
2022/08/27 03:52:19;;;;;;;6.10;2.03;;;;;;;;;;5042238;28;20033;-63
2022/08/27 03:54:45;;;;;;;7.25;2.40;;;;;;;;;;5038326;28;20502;-63
2022/08/27 03:57:11;;;;;;;4.32;2.20;;;;;;;;;;5042797;28;20128;-63
2022/08/27 03:59:38;;;;;;;6.38;1.90;;;;;;;;;;5038913;28;20048;-63
2022/08/27 04:02:04;;;;;;;6.05;1.88;;;;;;;;;;5040072;28;20040;-63
2022/08/27 04:04:30;;;;;;;3.60;2.05;;;;;;;;;;5057929;28;20120;-63
2022/08/27 04:06:56;;;;;;;3.67;2.00;;;;;;;;;;5041630;28;20526;-63
2022/08/27 04:09:23;;;;;;;3.97;1.70;;;;;;;;;;5037376;28;20063;-63
2022/08/27 04:11:49;;;;;;;5.25;2.25;;;;;;;;;;5036332;28;20041;-63
2022/08/27 04:14:15;;;;;;;6.03;2.10;;;;;;;;;;5043571;28;20038;-63
2022/08/27 04:16:42;;;;;;;4.65;2.65;;;;;;;;;;5044099;22;20091;-63
2022/08/27 04:19:08;;;;;;;6.32;2.20;;;;;;;;;;5027110;28;20041;-63
2022/08/27 04:21:35;;;;;;;4.30;1.83;;;;;;;;;;5018867;28;20064;-63
2022/08/27 04:24:01;;;;;;;3.88;1.80;;;;;;;;;;5024578;28;20053;-63
2022/08/27 04:26:28;;;;;;;4.35;2.10;;;;;;;;;;5041418;28;20498;-64
2022/08/27 04:28:54;;;;;;;7.97;2.08;;;;;;;;;;5037852;28;20045;-63
2022/08/27 04:31:20;;;;;;;6.15;2.05;;;;;;;;;;5026780;28;20456;-64
2022/08/27 04:33:47;;;;;;;7.75;2.50;;;;;;;;;;5029274;28;20033;-63
2022/08/27 04:36:14;;;;;;;4.63;1.98;;;;;;;;;;5036664;28;20410;-63
2022/08/27 04:38:40;;;;;;;4.13;1.98;;;;;;;;;;5042805;28;20405;-63
2022/08/27 04:41:21;;;;;;;6.80;2.17;;;;;;;;;;5043640;28;20052;-63
2022/08/27 04:43:49;;;;;;;6.18;1.90;;;;;;;;;;5022211;28;20073;-63
2022/08/27 04:46:24;;;;;;;4.25;2.17;;;;;;;;;;5032115;28;20057;-63
2022/08/27 04:48:50;;;;;;;3.55;2.22;;;;;;;;;;5047177;28;20049;-63
2022/08/27 04:51:17;;;;;;;7.35;2.10;;;;;;;;;;5038489;28;20033;-63
2022/08/27 04:53:43;;;;;;;5.50;2.20;;;;;;;;;;5035615;28;20037;-63
2022/08/27 04:56:12;;;;;;;4.47;1.92;;;;;;;;;;5051569;28;20033;-63
2022/08/27 04:58:38;;;;;;;3.38;2.10;;;;;;;;;;5048562;28;20042;-63
2022/08/27 05:01:06;;;;;;;7.53;2.45;;;;;;;;;;5033719;28;20064;-63
2022/08/27 05:03:32;;;;;;;5.43;2.22;;;;;;;;;;5035144;28;20116;-63
2022/08/27 05:05:59;;;;;;;4.32;2.00;;;;;;;;;;5029742;28;20104;-64
2022/08/27 05:08:25;;;;;;;5.63;2.35;;;;;;;;;;5034813;28;20645;-63
2022/08/27 05:10:51;;;;;;;7.57;2.63;;;;;;;;;;5030480;28;20046;-63
2022/08/27 05:13:18;;;;;;;5.05;2.05;;;;;;;;;;5037924;28;20045;-63
2022/08/27 05:15:45;;;;;;;6.43;2.40;;;;;;;;;;5033291;28;20281;-63
2022/08/27 05:18:12;;;;;;;6.57;2.47;;;;;;;;;;5050108;28;20033;-63
2022/08/27 05:20:42;;;;;;;6.80;2.50;;;;;;;;;;5041817;28;20485;-64
2022/08/27 05:23:08;;;;;;;6.88;2.53;;;;;;;;;;5019889;28;20095;-63
2022/08/27 05:25:37;;;;;;;6.07;2.40;;;;;;;;;;5037938;28;20041;-63
2022/08/27 05:28:03;;;;;;;4.35;2.20;;;;;;;;;;5018301;28;20034;-64
2022/08/27 05:30:29;;;;;;;3.67;2.50;;;;;;;;;;5027826;28;20038;-63
2022/08/27 05:32:55;;;;;;;6.78;2.65;;;;;;;;;;5040967;28;20098;-64
2022/08/27 05:35:22;;;;;;;6.25;2.50;;;;;;;;;;5039251;28;20037;-64
2022/08/27 05:37:48;;;;;;;6.70;2.28;;;;;;;;;;5032939;28;20746;-63
2022/08/27 05:40:14;;;;;;;7.22;2.60;;;;;;;;;;5028705;28;20041;-64
2022/08/27 05:42:41;;;;;;;6.63;2.40;;;;;;;;;;5043033;28;20076;-64
2022/08/27 05:45:08;;;;;;;3.35;2.42;;;;;;;;;;5031848;28;20053;-64
2022/08/27 05:47:34;;;;;;;8.25;2.50;;;;;;;;;;5053681;28;20041;-63
2022/08/27 05:50:02;;;;;;;4.43;2.60;;;;;;;;;;5024567;28;20056;-63
2022/08/27 05:52:28;;;;;;;4.53;2.50;;;;;;;;;;5048679;28;20509;-63
2022/08/27 05:54:54;;;;;;;6.38;2.58;;;;;;;;;;5043372;28;20034;-63
2022/08/27 05:57:20;;;;;;;5.35;2.40;;;;;;;;;;5031902;28;20094;-63
2022/08/27 06:02:35;;;;;;;5.18;2.17;;;;;;;;;;5044142;28;20045;-63
2022/08/27 06:05:02;;;;;;;6.10;2.20;;;;;;;;;;5040918;28;20037;-64
2022/08/27 06:07:28;;;;;;;4.45;2.00;;;;;;;;;;5030182;28;20069;-64
2022/08/27 06:09:56;;;;;;;5.95;2.55;;;;;;;;;;5012619;28;20095;-63
2022/08/27 06:12:23;;;;;;;4.20;2.28;;;;;;;;;;5043699;28;20038;-64
2022/08/27 06:14:49;;;;;;;6.40;2.05;;;;;;;;;;5027365;28;20044;-63
2022/08/27 06:17:15;;;;;;;4.28;1.98;;;;;;;;;;5037970;28;20042;-63
2022/08/27 06:19:41;;;;;;;7.50;2.15;;;;;;;;;;5045967;28;20039;-63
2022/08/27 06:22:08;;;;;;;4.10;2.10;;;;;;;;;;5031717;28;20483;-64
2022/08/27 06:24:34;;;;;;;4.85;2.08;;;;;;;;;;5035232;28;20052;-63
2022/08/27 06:27:00;;;;;;;6.95;2.30;;;;;;;;;;5036370;28;20052;-64
2022/08/27 06:29:27;;;;;;;6.65;2.00;;;;;;;;;;5031465;28;20048;-63
2022/08/27 06:31:55;;;;;;;4.72;1.85;;;;;;;;;;5020688;28;20057;-64
2022/08/27 06:34:21;;;;;;;3.70;2.03;;;;;;;;;;5028960;28;20077;-63
2022/08/27 06:36:47;;;;;;;6.60;2.10;;;;;;;;;;5032906;28;20439;-64
2022/08/27 06:39:14;;;;;;;6.28;2.17;;;;;;;;;;5049492;28;20414;-63
2022/08/27 06:41:41;;;;;;;6.47;2.08;;;;;;;;;;5032545;28;20051;-63
2022/08/27 06:44:07;;;;;;;5.68;2.22;;;;;;;;;;5031466;28;20042;-64
2022/08/27 06:46:33;;;;;;;5.80;1.85;;;;;;;;;;5040706;28;20068;-63
2022/08/27 06:49:00;;;;;;;5.25;2.03;;;;;;;;;;5030015;28;20095;-63
2022/08/27 06:51:28;;;;;;;7.60;1.83;;;;;;;;;;5033492;28;20116;-63
2022/08/27 06:53:55;;;;;;;6.60;2.13;;;;;;;;;;5026528;28;20124;-64
2022/08/27 06:56:22;;;;;;;6.85;2.00;;;;;;;;;;5033618;28;20034;-64
2022/08/27 06:58:51;;;;;;;4.35;1.80;;;;;;;;;;5035143;28;20045;-63
2022/08/27 07:01:19;;;;;;;7.35;2.10;;;;;;;;;;5030911;28;20095;-64
2022/08/27 07:03:46;;;;;;;4.13;1.63;;;;;;;;;;5014628;28;20521;-63
2022/08/27 07:06:13;;;;;;;3.67;1.50;;;;;;;;;;5048940;28;20044;-64
2022/08/27 07:08:39;;;;;;;4.22;1.50;;;;;;;;;;5045256;28;20064;-63
2022/08/27 07:11:07;;;;;;;6.47;1.73;;;;;;;;;;5024141;28;20049;-64
2022/08/27 07:13:33;;;;;;;5.68;1.85;;;;;;;;;;5031309;28;20088;-63
2022/08/27 07:16:03;;;;;;;7.00;1.75;;;;;;;;;;5028265;28;20045;-63
2022/08/27 07:18:29;;;;;;;6.90;1.75;;;;;;;;;;5034415;28;20033;-64
2022/08/27 07:20:55;;;;;;;5.40;1.70;;;;;;;;;;5040419;28;20045;-64
2022/08/27 07:23:21;;;;;;;6.15;1.80;;;;;;;;;;5029110;28;20060;-63
2022/08/27 07:25:47;;;;;;;6.20;1.95;;;;;;;;;;5037458;28;20439;-63
2022/08/27 07:28:13;;;;;;;6.18;1.75;;;;;;;;;;5025164;28;20041;-64
2022/08/27 07:30:39;;;;;;;5.13;1.73;;;;;;;;;;5026685;28;20538;-64
2022/08/27 07:33:05;;;;;;;2.97;1.50;;;;;;;;;;5031941;28;20043;-64
2022/08/27 07:35:31;;;;;;;4.03;1.60;;;;;;;;;;5040968;28;20116;-64
2022/08/27 07:37:58;;;;;;;6.20;1.60;;;;;;;;;;5025198;28;20037;-63
2022/08/27 07:40:24;;;;;;;3.60;1.60;;;;;;;;;;5024375;28;20041;-63
2022/08/27 07:45:34;;;;;;;7.88;2.05;;;;;;;;;;5008266;28;20064;-63
2022/08/27 07:48:00;;;;;;;5.57;1.40;;;;;;;;;;5024719;28;20038;-63
2022/08/27 07:50:26;;;;;;;7.15;1.88;;;;;;;;;;5019180;28;20054;-63
2022/08/27 07:52:52;;;;;;;3.15;1.50;;;;;;;;;;5046375;28;20135;-63
2022/08/27 07:55:19;;;;;;;5.22;1.40;;;;;;;;;;5035504;28;20059;-63
2022/08/27 07:57:47;;;;;;;6.35;1.95;;;;;;;;;;5015301;28;20447;-63
2022/08/27 08:00:13;;;;;;;4.97;1.85;;;;;;;;;;5020636;28;20048;-63
2022/08/27 08:02:41;;;;;;;4.65;1.60;;;;;;;;;;5031025;28;20045;-63
2022/08/27 08:05:08;;;;;;;7.28;1.58;;;;;;;;;;5036950;28;20056;-63
2022/08/27 08:07:37;;;;;;;8.75;1.60;;;;;;;;;;5035581;28;20121;-63
2022/08/27 08:10:03;;;;;;;3.50;1.45;;;;;;;;;;5025346;28;20435;-63
2022/08/27 08:12:30;;;;;;;5.53;1.60;;;;;;;;;;5028298;28;20041;-63
2022/08/27 08:14:56;;;;;;;5.68;1.55;;;;;;;;;;5026293;28;20103;-63
2022/08/27 08:17:24;;;;;;;8.80;1.90;;;;;;;;;;5031692;28;20116;-63
2022/08/27 08:19:51;;;;;;;5.05;1.30;;;;;;;;;;5040485;28;20041;-63
2022/08/27 08:22:17;;;;;;;4.93;1.48;;;;;;;;;;5029967;28;20106;-63
2022/08/27 08:24:43;;;;;;;6.10;1.52;;;;;;;;;;5035445;28;20041;-63
2022/08/27 08:27:10;;;;;;;6.32;1.42;;;;;;;;;;5037985;28;20403;-63
2022/08/27 08:29:36;;;;;;;5.00;1.58;;;;;;;;;;5002770;28;20050;-63
2022/08/27 08:32:03;;;;;;;4.60;1.40;;;;;;;;;;5038604;28;20566;-63
2022/08/27 08:34:29;;;;;;;3.58;1.58;;;;;;;;;;5045625;28;20132;-63
2022/08/27 08:36:55;;;;;;;8.10;1.63;;;;;;;;;;5037928;28;20051;-63
2022/08/27 08:39:21;;;;;;;4.72;1.30;;;;;;;;;;5043251;28;20037;-63
2022/08/27 08:41:55;;;;;;;4.18;1.52;;;;;;;;;;5027614;28;20060;-63
2022/08/27 08:44:31;;;;;;;6.20;1.70;;;;;;;;;;5039593;28;20059;-63
2022/08/27 08:47:15;;;;;;;6.75;1.60;;;;;;;;;;5028417;28;20550;-63
2022/08/27 08:50:07;;;;;;;4.72;1.33;;;;;;;;;;5026526;28;20042;-63
2022/08/27 08:52:33;;;;;;;5.68;1.50;;;;;;;;;;5025820;28;20037;-63
2022/08/27 08:55:07;;;;;;;8.95;1.83;;;;;;;;;;5037302;28;20126;-64
2022/08/27 08:57:36;;;;;;;8.10;1.98;;;;;;;;;;5007751;28;20075;-63
2022/08/27 09:00:11;;;;;;;5.55;1.52;;;;;;;;;;5029607;28;20065;-63
2022/08/27 09:02:37;;;;;;;7.07;2.30;;;;;;;;;;5037197;28;20029;-64
2022/08/27 09:05:06;;;;;;;5.05;1.45;;;;;;;;;;4997351;28;20084;-64
2022/08/27 09:07:37;;;;;;;2.92;1.10;;;;;;;;;;5024028;28;20502;-64
2022/08/27 09:10:03;;;;;;;7.03;1.80;;;;;;;;;;5032922;28;20041;-64
2022/08/27 09:12:32;;;;;;;7.65;1.65;;;;;;;;;;5038997;28;20034;-63
2022/08/27 09:14:58;;;;;;;7.15;1.40;;;;;;;;;;5029860;28;20038;-63
2022/08/27 09:17:24;;;;;;;7.80;1.58;;;;;;;;;;5028190;28;20025;-63
2022/08/27 09:19:50;;;;;;;5.10;1.50;;;;;;;;;;5000341;28;20049;-63
2022/08/27 09:22:23;;;;;;;6.38;1.50;;;;;;;;;;5032372;28;20045;-64
2022/08/27 09:25:04;;;;;;;6.70;1.58;;;;;;;;;;5032252;28;20052;-63
2022/08/27 09:27:30;;;;;;;;;;;;;;;;;;5046046;28;20498;-63
2022/08/27 09:29:56;;;;;;;4.53;1.42;;;;;;;;;;5054176;28;19924;-63
2022/08/27 09:32:26;;;;;;;6.38;1.70;;;;;;;;;;5054710;28;20044;-63
2022/08/27 09:34:56;;;;;;;5.80;1.50;;;;;;;;;;5034089;28;20045;-63
2022/08/27 09:37:25;;;;;;;4.38;1.10;;;;;;;;;;5034642;28;20126;-63
2022/08/27 09:40:05;;;;;;;5.97;1.67;;;;;;;;;;5045057;28;20041;-63
2022/08/27 09:42:35;;;;;;;3.90;0.90;;;;;;;;;;5046176;28;20473;-63
2022/08/27 09:45:01;;;;;;;7.53;1.38;;;;;;;;;;5045844;28;20044;-64
2022/08/27 09:47:28;;;;;;;3.10;1.10;;;;;;;;;;5045760;28;20052;-63
2022/08/27 09:50:06;;;;;;;4.80;1.50;;;;;;;;;;5046592;28;20037;-64
2022/08/27 09:52:53;;;;;;;5.93;1.55;;;;;;;;;;5041965;28;20033;-64
2022/08/27 09:55:27;;;;;;;4.35;1.30;;;;;;;;;;5044944;28;20041;-63
2022/08/27 09:57:53;;;;;;;7.13;1.45;;;;;;;;;;5048720;28;20037;-64
2022/08/27 10:00:26;;;;;;;4.97;1.40;;;;;;;;;;5053456;28;20111;-63
2022/08/27 10:02:53;;;;;;;3.45;1.10;;;;;;;;;;5046359;28;20403;-63
2022/08/27 10:05:31;;;;;;;4.05;1.10;;;;;;;;;;5035358;28;20394;-63
2022/08/27 10:08:35;;;;;;;5.05;1.48;;;;;;;;;;5048991;28;20045;-63
2022/08/27 10:11:03;;;;;;;4.18;1.20;;;;;;;;;;4953308;29;20043;-63
2022/08/27 10:13:36;;;;;;;4.05;1.35;;;;;;;;;;4949671;29;20044;-64
2022/08/27 10:16:02;;;;;;;4.40;1.35;;;;;;;;;;5004017;22;20097;-64
2022/08/27 10:19:07;;;;;;;5.28;1.58;;;;;;;;;;5022988;28;20044;-64
2022/08/27 10:21:51;;;;;;;6.53;1.20;;;;;;;;;;4997039;28;20042;-64
2022/08/27 10:24:20;;;;;;;3.88;1.30;;;;;;;;;;5012494;28;20045;-64
2022/08/27 10:26:58;;;;;;;7.80;1.35;;;;;;;;;;5001631;28;20616;-64
2022/08/27 10:29:27;;;;;;;4.47;1.30;;;;;;;;;;5005715;28;20037;-64
2022/08/27 10:32:16;;;;;;;9.40;1.38;;;;;;;;;;5012064;28;20048;-64
2022/08/27 10:34:57;;;;;;;5.28;1.08;;;;;;;;;;5004455;28;20484;-63
2022/08/27 10:37:23;;;;;;;6.15;1.33;;;;;;;;;;5006463;28;20042;-64
2022/08/27 10:39:52;;;;;;;8.60;1.40;;;;;;;;;;5029387;28;20049;-63
2022/08/27 10:42:22;;;;;;;4.53;1.10;;;;;;;;;;5021103;28;20041;-63
2022/08/27 10:45:14;;;;;;;4.63;0.93;;;;;;;;;;5008286;28;20077;-63
2022/08/27 10:47:55;;;;;;;4.03;1.17;;;;;;;;;;5011325;28;20072;-64
2022/08/27 10:50:21;;;;;;;;;;;;;;;;;;5030574;28;20049;-64
2022/08/27 10:52:50;;;;;;;3.30;1.52;;;;;;;;;;5012005;28;19971;-64
2022/08/27 10:55:22;;;;;;;5.25;1.33;;;;;;;;;;5014807;28;20521;-64
2022/08/27 10:57:51;;;;;;;6.00;1.48;;;;;;;;;;5009521;28;20093;-64
2022/08/27 11:00:21;;;;;;;3.88;1.10;;;;;;;;;;5011920;28;20042;-64
2022/08/27 11:02:49;;;;;;;6.57;1.30;;;;;;;;;;5022587;28;20053;-64
2022/08/27 11:05:25;;;;;;;7.25;1.25;;;;;;;;;;5019858;28;20045;-64
2022/08/27 11:08:07;;;;;;;6.38;1.33;;;;;;;;;;5019235;28;20402;-64
2022/08/27 11:10:35;;;;;;;6.25;1.42;;;;;;;;;;5022790;28;20040;-64
2022/08/27 11:13:08;;;;;;;5.40;1.20;;;;;;;;;;5023029;28;20034;-64
2022/08/27 11:15:36;;;;;;;6.30;1.05;;;;;;;;;;5003379;28;20033;-64
2022/08/27 11:18:14;;;;;;;7.68;1.30;;;;;;;;;;5018483;28;20065;-64
2022/08/27 11:20:44;;;;;;;5.63;1.45;;;;;;;;;;5007548;28;20053;-64
2022/08/27 11:23:15;;;;;;;4.57;1.40;;;;;;;;;;5032233;28;20037;-64
2022/08/27 11:25:49;;;;;;;3.78;1.02;;;;;;;;;;5022263;28;20045;-64
2022/08/27 11:28:17;;;;;;;6.82;1.20;;;;;;;;;;5012725;28;20412;-64
2022/08/27 11:30:52;;;;;;;5.65;1.25;;;;;;;;;;5010370;28;20038;-64
2022/08/27 11:33:24;;;;;;;5.57;1.33;;;;;;;;;;5010516;28;20030;-64
2022/08/27 11:36:01;;;;;;;2.05;1.08;;;;;;;;;;5016026;28;20038;-64
2022/08/27 11:38:29;;;;;;;5.45;1.48;;;;;;;;;;5018576;28;20046;-64
2022/08/27 11:41:14;;;;;;;9.25;1.50;;;;;;;;;;5014671;28;20053;-65
2022/08/27 11:43:41;;;;;;;5.40;1.17;;;;;;;;;;5016647;28;20503;-64
2022/08/27 11:46:08;;;;;;;6.00;1.02;;;;;;;;;;5022352;28;20042;-64
2022/08/27 11:48:37;;;;;;;6.95;1.73;;;;;;;;;;5019712;28;20045;-64
2022/08/27 11:51:05;;;;;;;7.50;1.20;;;;;;;;;;5006554;28;20041;-64
2022/08/27 11:54:00;;;;;;;5.53;1.20;;;;;;;;;;5020762;28;20673;-65
2022/08/27 11:56:29;;;;;;;3.85;1.10;;;;;;;;;;5000223;28;20475;-63
2022/08/27 11:58:56;;;;;;;3.58;1.00;;;;;;;;;;5003290;28;20045;-65
2022/08/27 12:01:25;;;;;;;6.07;1.75;;;;;;;;;;5009204;28;20050;-63
2022/08/27 12:04:00;;;;;;;5.63;1.30;;;;;;;;;;5017140;28;20548;-63
2022/08/27 12:06:26;;;;;;;6.88;1.52;;;;;;;;;;5011745;28;20051;-63
2022/08/27 12:08:53;;;;;;;3.63;1.00;;;;;;;;;;5011306;28;20476;-64
2022/08/27 12:11:28;;;;;;;7.47;1.67;;;;;;;;;;5014238;28;20037;-64
2022/08/27 12:14:07;;;;;;;7.28;1.50;;;;;;;;;;5012785;28;20050;-65
2022/08/27 12:16:36;;;;;;;7.53;1.10;;;;;;;;;;5019079;28;20033;-65
2022/08/27 12:19:18;;;;;;;7.07;1.60;;;;;;;;;;5005594;28;20034;-64
2022/08/27 12:21:48;;;;;;;6.70;1.33;;;;;;;;;;5004947;28;20045;-64
2022/08/27 12:24:33;;;;;;;4.82;1.17;;;;;;;;;;5009575;28;20071;-64
2022/08/27 12:27:01;;;;;;;6.35;1.10;;;;;;;;;;5023902;28;20052;-65
2022/08/27 12:29:37;;;;;;;7.43;1.23;;;;;;;;;;5015640;28;20053;-65
2022/08/27 12:32:06;;;;;;;6.30;1.77;;;;;;;;;;5010992;28;20034;-65
2022/08/27 12:34:41;;;;;;;4.78;1.00;;;;;;;;;;5005430;28;20046;-64
2022/08/27 12:37:08;;;;;;;5.80;1.15;;;;;;;;;;5011514;28;20488;-64
2022/08/27 12:39:38;;;;;;;4.60;1.05;;;;;;;;;;5019853;28;20048;-65
2022/08/27 12:42:11;;;;;;;2.47;1.02;;;;;;;;;;5012239;28;20116;-65
2022/08/27 12:44:38;;;;;;;7.78;1.40;;;;;;;;;;5007502;28;20077;-65
2022/08/27 12:47:06;;;;;;;4.47;1.10;;;;;;;;;;5018247;28;20041;-65
2022/08/27 12:49:50;;;;;;;7.93;1.45;;;;;;;;;;5017501;28;20483;-66
2022/08/27 12:52:32;;;;;;;6.55;1.30;;;;;;;;;;5018716;28;20124;-65
2022/08/27 12:55:13;;;;;;;4.15;1.30;;;;;;;;;;5007489;28;20041;-65
2022/08/27 12:57:48;;;;;;;4.93;1.27;;;;;;;;;;5011570;28;20034;-65
2022/08/27 13:00:18;;;;;;;4.72;1.17;;;;;;;;;;5026028;28;20400;-65
2022/08/27 13:03:05;;;;;;;3.95;1.10;;;;;;;;;;5018257;28;20221;-65
2022/08/27 13:05:39;;;;;;;6.43;1.33;;;;;;;;;;5016717;28;20045;-66
2022/08/27 13:08:16;;;;;;;5.97;1.13;;;;;;;;;;5008594;28;20121;-65
2022/08/27 13:10:43;;;;;;;5.03;1.10;;;;;;;;;;5014721;28;20042;-65
2022/08/27 13:13:13;;;;;;;7.03;1.73;;;;;;;;;;5021832;28;20097;-65
2022/08/27 13:15:49;;;;;;;4.03;0.90;;;;;;;;;;5020181;28;20030;-65
2022/08/27 13:18:16;;;;;;;2.05;0.90;;;;;;;;;;5010863;28;20044;-65
2022/08/27 13:20:42;;;;;;;3.38;0.80;;;;;;;;;;5025022;28;20049;-65
2022/08/27 13:23:15;;;;;;;3.22;1.27;;;;;;;;;;5014481;28;20092;-65
2022/08/27 13:25:52;;;;;;;6.60;1.38;;;;;;;;;;5023806;28;20389;-64
2022/08/27 13:28:20;;;;;;;7.03;1.63;;;;;;;;;;5024787;28;20388;-65
2022/08/27 13:30:47;;;;;;;5.82;1.05;;;;;;;;;;5016334;28;20046;-65
2022/08/27 13:33:19;;;;;;;5.55;1.00;;;;;;;;;;5016506;28;20041;-65
2022/08/27 13:35:46;;;;;;;7.00;1.00;;;;;;;;;;5007671;28;20529;-65
2022/08/27 13:38:14;;;;;;;3.58;1.23;;;;;;;;;;5013887;28;20432;-66
2022/08/27 13:41:00;;;;;;;5.18;1.17;;;;;;;;;;5010986;28;20068;-66
2022/08/27 13:43:34;;;;;;;5.05;1.02;;;;;;;;;;5012297;28;20049;-65
2022/08/27 13:46:01;;;;;;;6.28;0.93;;;;;;;;;;5017795;28;20470;-65
2022/08/27 13:48:28;;;;;;;5.85;1.00;;;;;;;;;;5014938;28;20869;-65
2022/08/27 13:50:55;;;;;;;5.28;1.00;;;;;;;;;;5011323;28;20042;-65
2022/08/27 13:56:10;;;;;;;4.95;0.95;;;;;;;;;;5015696;28;20120;-66
2022/08/27 13:58:36;;;;;;;4.03;0.90;;;;;;;;;;5009839;28;20306;-65
2022/08/27 14:01:08;;;;;;;3.65;1.05;;;;;;;;;;5013111;28;20049;-66
2022/08/27 14:03:35;;;;;;;4.00;1.10;;;;;;;;;;5013732;28;20041;-66
2022/08/27 14:06:02;;;;;;;5.25;1.13;;;;;;;;;;5008799;28;20034;-66
2022/08/27 14:08:34;;;;;;;5.18;1.00;;;;;;;;;;5014933;28;20045;-65
2022/08/27 14:11:05;;;;;;;8.88;1.02;;;;;;;;;;5014992;28;20073;-65
2022/08/27 14:13:48;;;;;;;4.05;1.00;;;;;;;;;;5023223;28;20049;-65
2022/08/27 14:16:22;;;;;;;4.57;1.25;;;;;;;;;;5012004;28;20049;-65
2022/08/27 14:18:55;;;;;;;5.85;1.17;;;;;;;;;;5016521;28;20041;-65
2022/08/27 14:21:21;;;;;;;3.83;1.27;;;;;;;;;;5018773;28;20518;-65
2022/08/27 14:23:47;;;;;;;2.80;0.80;;;;;;;;;;5015128;28;20042;-65
2022/08/27 14:26:16;;;;;;;4.43;1.05;;;;;;;;;;5011392;28;20565;-65
2022/08/27 14:28:42;;;;;;;6.95;1.35;;;;;;;;;;5018961;28;20046;-65
2022/08/27 14:31:08;;;;;;;4.95;0.90;;;;;;;;;;5006644;28;20041;-65
2022/08/27 14:33:34;;;;;;;3.35;0.90;;;;;;;;;;5008392;28;20041;-65
2022/08/27 14:36:00;;;;;;;5.38;1.25;;;;;;;;;;5016488;28;20038;-65
2022/08/27 14:38:30;;;;;;;3.83;0.93;;;;;;;;;;5025527;28;20054;-65
2022/08/27 14:40:57;;;;;;;4.38;0.88;;;;;;;;;;5010900;28;20056;-65
2022/08/27 14:43:23;;;;;;;5.40;1.10;;;;;;;;;;5014863;28;20071;-66
2022/08/27 14:45:50;;;;;;;5.32;0.95;;;;;;;;;;5022167;28;20052;-65
2022/08/27 14:48:21;;;;;;;4.68;1.00;;;;;;;;;;5015286;28;20038;-65
2022/08/27 14:50:48;;;;;;;5.03;0.80;;;;;;;;;;5001703;28;20041;-65
2022/08/27 14:53:14;;;;;;;4.28;1.10;;;;;;;;;;5002175;28;20034;-65
2022/08/27 14:55:40;;;;;;;3.65;0.90;;;;;;;;;;5013043;28;20431;-65
2022/08/27 14:58:06;;;;;;;2.90;0.70;;;;;;;;;;5010917;28;20426;-65
2022/08/27 15:00:32;;;;;;;3.78;0.88;;;;;;;;;;5010612;28;20048;-65
2022/08/27 15:02:58;;;;;;;4.82;1.00;;;;;;;;;;5007924;28;20084;-65
2022/08/27 15:05:25;;;;;;;4.65;0.80;;;;;;;;;;5010005;28;20042;-64